createdAt,value
2022-11-24T00:00:29.701Z,3.03
2022-11-24T00:02:56.268Z,3.00
2022-11-24T00:05:23.591Z,3.22
2022-11-24T00:07:50.093Z,2.90
2022-11-24T00:10:16.622Z,3.00
2022-11-24T00:12:43.138Z,3.20
2022-11-24T00:15:10.015Z,2.67
2022-11-24T00:17:36.423Z,2.90
2022-11-24T00:20:02.998Z,3.10
2022-11-24T00:22:29.378Z,2.92
2022-11-24T00:24:55.764Z,2.92
2022-11-24T00:27:22.230Z,3.33
2022-11-24T00:29:48.595Z,3.45
2022-11-24T00:32:15.004Z,2.78
2022-11-24T00:34:42.008Z,3.67
2022-11-24T00:37:08.425Z,3.33
2022-11-24T00:39:34.796Z,3.80
2022-11-24T00:42:02.010Z,3.55
2022-11-24T00:44:28.390Z,3.67
2022-11-24T00:46:54.954Z,3.40
2022-11-24T00:49:21.473Z,3.25
2022-11-24T00:51:47.939Z,4.35
2022-11-24T00:54:14.394Z,3.20
2022-11-24T00:56:40.825Z,4.05
2022-11-24T00:59:07.367Z,4.22
2022-11-24T01:01:34.029Z,3.38
2022-11-24T01:04:03.802Z,3.80
2022-11-24T01:06:31.014Z,4.10
2022-11-24T01:08:58.007Z,4.18
2022-11-24T01:11:51.583Z,4.30
2022-11-24T01:14:18.608Z,3.55
2022-11-24T01:16:45.065Z,3.45
2022-11-24T01:19:11.524Z,3.60
2022-11-24T01:21:37.937Z,3.58
2022-11-24T01:24:04.554Z,3.97
2022-11-24T01:26:31.002Z,3.80
2022-11-24T01:28:58.468Z,3.90
2022-11-24T01:31:25.586Z,4.38
2022-11-24T01:33:52.661Z,4.00
2022-11-24T01:36:19.289Z,4.10
2022-11-24T01:38:46.043Z,4.22
2022-11-24T01:41:18.311Z,4.25
2022-11-24T01:43:45.429Z,4.57
2022-11-24T01:46:30.993Z,4.47
2022-11-24T01:49:22.629Z,4.18
2022-11-24T01:51:58.505Z,4.22
2022-11-24T01:54:33.245Z,4.43
2022-11-24T01:57:06.675Z,4.47
2022-11-24T01:59:33.175Z,5.80
2022-11-24T02:01:59.800Z,5.28
2022-11-24T02:04:29.672Z,4.18
2022-11-24T02:06:57.873Z,5.07
2022-11-24T02:09:27.868Z,4.50
2022-11-24T02:11:54.922Z,4.22
2022-11-24T02:14:22.420Z,4.72
2022-11-24T02:16:50.063Z,5.38
2022-11-24T02:19:32.920Z,4.55
2022-11-24T02:21:59.978Z,4.75
2022-11-24T02:24:39.112Z,4.68
2022-11-24T02:27:05.602Z,4.72
2022-11-24T02:29:32.090Z,5.47
2022-11-24T02:32:01.004Z,4.32
2022-11-24T02:34:27.472Z,4.30
2022-11-24T02:36:53.841Z,4.50
2022-11-24T02:39:20.948Z,4.63
2022-11-24T02:41:52.484Z,4.93
2022-11-24T02:44:20.725Z,5.13
2022-11-24T02:46:47.101Z,4.93
2022-11-24T02:49:13.532Z,4.78
2022-11-24T02:51:39.947Z,5.78
2022-11-24T02:54:06.431Z,5.22
2022-11-24T02:56:32.873Z,4.45
2022-11-24T02:58:59.307Z,4.72
2022-11-24T03:01:25.792Z,5.15
2022-11-24T03:03:52.264Z,5.60
2022-11-24T03:06:18.671Z,5.30
2022-11-24T03:08:45.238Z,5.20
2022-11-24T03:11:12.064Z,5.50
2022-11-24T03:13:38.481Z,5.40
2022-11-24T03:16:08.497Z,4.95
2022-11-24T03:18:34.964Z,5.15
2022-11-24T03:21:01.457Z,5.45
2022-11-24T03:23:27.941Z,5.90
2022-11-24T03:25:54.919Z,5.70
2022-11-24T03:28:21.349Z,5.65
2022-11-24T03:30:50.953Z,5.35
2022-11-24T03:33:17.403Z,5.72
2022-11-24T03:35:43.776Z,5.20
2022-11-24T03:38:10.252Z,4.97
2022-11-24T03:40:36.653Z,5.63
2022-11-24T03:43:03.047Z,5.00
2022-11-24T03:45:45.318Z,5.55
2022-11-24T03:48:13.613Z,6.00
2022-11-24T03:50:40.134Z,5.95
2022-11-24T03:53:06.576Z,5.25
2022-11-24T03:55:32.977Z,6.47
2022-11-24T03:57:59.418Z,5.03
2022-11-24T04:00:26.388Z,5.97
2022-11-24T04:02:52.845Z,6.20
2022-11-24T04:05:19.430Z,5.30
2022-11-24T04:07:45.993Z,5.20
2022-11-24T04:10:12.559Z,5.28
2022-11-24T04:12:44.912Z,4.70
2022-11-24T04:15:16.440Z,4.95
2022-11-24T04:17:43.411Z,4.57
2022-11-24T04:20:11.084Z,5.45
2022-11-24T04:22:37.523Z,5.78
2022-11-24T04:25:04.961Z,5.13
2022-11-24T04:27:33.124Z,4.75
2022-11-24T04:29:59.560Z,4.40
2022-11-24T04:32:26.019Z,4.97
2022-11-24T04:34:53.239Z,5.13
2022-11-24T04:37:19.632Z,4.65
2022-11-24T04:39:46.441Z,5.05
2022-11-24T04:42:13.092Z,4.80
2022-11-24T04:44:39.536Z,5.05
2022-11-24T04:47:06.564Z,4.82
2022-11-24T04:49:33.078Z,5.22
2022-11-24T04:51:59.474Z,4.70
2022-11-24T04:54:25.937Z,3.55
2022-11-24T04:56:53.103Z,5.40
2022-11-24T04:59:20.017Z,4.68
2022-11-24T05:01:47.105Z,3.92
2022-11-24T05:04:15.171Z,5.70
2022-11-24T05:06:41.714Z,5.45
2022-11-24T05:09:08.837Z,4.60
2022-11-24T05:11:35.248Z,4.35
2022-11-24T05:14:01.964Z,3.75
2022-11-24T05:16:28.394Z,4.30
2022-11-24T05:18:54.836Z,4.20
2022-11-24T05:21:21.239Z,4.28
2022-11-24T05:23:47.734Z,4.22
2022-11-24T05:26:14.202Z,3.95
2022-11-24T05:28:40.627Z,3.75
2022-11-24T05:31:07.158Z,4.18
2022-11-24T05:33:33.744Z,4.72
2022-11-24T05:36:02.162Z,4.05
2022-11-24T05:38:29.876Z,3.95
2022-11-24T05:41:05.920Z,4.15
2022-11-24T05:43:32.392Z,4.82
2022-11-24T05:46:00.333Z,5.15
2022-11-24T05:48:26.902Z,4.30
2022-11-24T05:50:55.632Z,3.97
2022-11-24T05:53:22.585Z,3.95
2022-11-24T05:55:49.183Z,4.03
2022-11-24T05:58:15.730Z,3.90
2022-11-24T06:00:42.220Z,4.43
2022-11-24T06:03:10.107Z,4.00
2022-11-24T06:05:36.697Z,4.05
2022-11-24T06:08:03.285Z,3.90
2022-11-24T06:10:29.867Z,3.90
2022-11-24T06:12:56.342Z,4.28
2022-11-24T06:15:23.081Z,4.20
2022-11-24T06:17:54.628Z,4.07
2022-11-24T06:20:21.473Z,5.03
2022-11-24T06:22:48.357Z,3.35
2022-11-24T06:25:16.140Z,3.65
2022-11-24T06:27:42.792Z,4.07
2022-11-24T06:30:09.829Z,4.78
2022-11-24T06:32:36.266Z,4.03
2022-11-24T06:35:02.885Z,4.50
2022-11-24T06:37:29.315Z,3.90
2022-11-24T06:39:55.749Z,4.30
2022-11-24T06:42:22.163Z,4.30
2022-11-24T06:44:48.683Z,4.38
2022-11-24T06:47:15.447Z,4.10
2022-11-24T06:49:41.896Z,4.95
2022-11-24T06:52:08.486Z,4.25
2022-11-24T06:54:35.020Z,4.50
2022-11-24T06:57:01.557Z,5.03
2022-11-24T06:59:28.203Z,4.93
2022-11-24T07:01:54.650Z,4.35
2022-11-24T07:04:21.166Z,4.47
2022-11-24T07:06:47.698Z,4.38
2022-11-24T07:09:14.693Z,3.70
2022-11-24T07:11:41.454Z,4.25
2022-11-24T07:14:08.395Z,4.70
2022-11-24T07:16:35.051Z,4.35
2022-11-24T07:19:01.730Z,4.88
2022-11-24T07:21:29.254Z,4.57
2022-11-24T07:23:57.285Z,4.97
2022-11-24T07:26:23.849Z,4.88
2022-11-24T07:28:50.994Z,4.45
2022-11-24T07:31:20.229Z,4.28
2022-11-24T07:33:50.994Z,4.32
2022-11-24T07:36:17.669Z,4.43
2022-11-24T07:38:44.287Z,6.10
2022-11-24T07:41:12.460Z,4.40
2022-11-24T07:43:39.503Z,5.38
2022-11-24T07:46:07.609Z,4.68
2022-11-24T07:48:34.400Z,5.38
2022-11-24T07:51:02.095Z,5.60
2022-11-24T07:53:28.941Z,5.72
2022-11-24T07:55:56.649Z,5.18
2022-11-24T07:58:23.286Z,5.63
2022-11-24T08:00:49.772Z,4.80
2022-11-24T08:03:16.646Z,4.85
2022-11-24T08:06:07.953Z,5.30
2022-11-24T08:08:33.181Z,4.47
2022-11-24T08:11:08.109Z,5.00
2022-11-24T08:13:35.691Z,4.90
2022-11-24T08:16:15.869Z,4.93
2022-11-24T08:18:42.860Z,5.97
2022-11-24T08:21:14.035Z,5.63
2022-11-24T08:23:40.928Z,5.93
2022-11-24T08:26:10.737Z,5.35
2022-11-24T08:28:38.124Z,5.78
2022-11-24T08:31:07.303Z,4.97
2022-11-24T08:33:33.735Z,5.60
2022-11-24T08:36:08.263Z,5.55
2022-11-24T08:38:34.781Z,6.45
2022-11-24T08:41:03.176Z,6.05
2022-11-24T08:43:29.882Z,5.85
2022-11-24T08:45:59.882Z,5.38
2022-11-24T08:48:26.764Z,5.30
2022-11-24T08:50:53.286Z,5.97
2022-11-24T08:53:19.900Z,5.82
2022-11-24T08:55:46.334Z,5.68
2022-11-24T08:58:12.793Z,5.10
2022-11-24T09:00:39.218Z,5.53
2022-11-24T09:03:05.613Z,5.38
2022-11-24T09:08:20.572Z,6.03
2022-11-24T09:10:47.110Z,4.75
2022-11-24T09:13:13.801Z,5.13
2022-11-24T09:15:40.262Z,5.28
2022-11-24T09:18:06.796Z,5.90
2022-11-24T09:20:33.179Z,4.90
2022-11-24T09:22:59.647Z,4.90
2022-11-24T09:25:26.358Z,5.10
2022-11-24T09:27:53.566Z,5.97
2022-11-24T09:30:20.337Z,5.22
2022-11-24T09:32:46.816Z,5.13
2022-11-24T09:35:13.343Z,6.55
2022-11-24T09:37:39.887Z,5.75
2022-11-24T09:40:07.169Z,6.00
2022-11-24T09:42:55.464Z,5.35
2022-11-24T09:45:57.544Z,7.88
2022-11-24T09:48:31.072Z,5.63
2022-11-24T09:51:00.096Z,5.50
2022-11-24T09:53:46.218Z,5.15
2022-11-24T09:56:20.795Z,5.47
2022-11-24T09:58:51.471Z,5.55
2022-11-24T10:01:20.894Z,5.25
2022-11-24T10:03:49.687Z,5.53
2022-11-24T10:06:39.243Z,5.70
2022-11-24T10:09:41.376Z,4.97
2022-11-24T10:12:23.348Z,4.78
2022-11-24T10:15:14.904Z,5.18
2022-11-24T10:17:59.514Z,5.43
2022-11-24T10:20:47.246Z,5.07
2022-11-24T10:23:46.240Z,5.30
2022-11-24T10:26:18.976Z,5.55
2022-11-24T10:28:58.426Z,5.55
2022-11-24T10:31:38.299Z,5.50
2022-11-24T10:34:17.552Z,4.95
2022-11-24T10:36:50.570Z,5.38
2022-11-24T10:39:50.454Z,5.07
2022-11-24T10:42:31.680Z,5.93
2022-11-24T10:45:01.990Z,4.85
2022-11-24T10:47:28.830Z,5.95
2022-11-24T10:50:01.075Z,5.80
2022-11-24T10:52:29.653Z,5.72
2022-11-24T10:55:01.338Z,6.72
2022-11-24T10:57:30.449Z,5.80
2022-11-24T10:59:56.993Z,6.70
2022-11-24T11:02:30.813Z,6.53
2022-11-24T11:04:57.663Z,7.55
2022-11-24T11:07:26.542Z,8.10
2022-11-24T11:10:22.779Z,8.55
2022-11-24T11:12:49.281Z,7.60
2022-11-24T11:15:26.825Z,10.10
2022-11-24T11:17:58.044Z,8.60
2022-11-24T11:20:33.603Z,9.20
2022-11-24T11:23:27.509Z,9.45
2022-11-24T11:26:20.188Z,9.90
2022-11-24T11:34:52.518Z,8.00
2022-11-24T11:37:20.689Z,8.52
2022-11-24T11:39:49.513Z,8.10
2022-11-24T11:42:53.721Z,9.40
2022-11-24T11:45:21.012Z,9.13
2022-11-24T11:47:50.969Z,9.00
2022-11-24T11:50:20.980Z,8.93
2022-11-24T11:52:57.232Z,8.52
2022-11-24T11:55:50.127Z,8.27
2022-11-24T11:58:38.261Z,8.77
2022-11-24T12:01:35.810Z,8.90
2022-11-24T12:04:34.806Z,8.93
2022-11-24T12:07:47.445Z,9.32
2022-11-24T12:10:24.265Z,9.33
2022-11-24T12:13:15.580Z,9.10
2022-11-24T12:15:46.415Z,8.57
2022-11-24T12:18:40.371Z,6.80
2022-11-24T12:21:29.888Z,7.03
2022-11-24T12:24:05.723Z,7.85
2022-11-24T12:26:52.998Z,7.68
2022-11-24T12:29:30.012Z,7.10
2022-11-24T12:32:32.203Z,7.78
2022-11-24T12:35:10.598Z,7.88
2022-11-24T12:37:47.594Z,7.18
2022-11-24T12:41:33.511Z,7.65
2022-11-24T12:43:57.303Z,7.05
2022-11-24T12:46:38.727Z,7.15
2022-11-24T12:49:11.800Z,6.88
2022-11-24T12:51:40.309Z,6.32
2022-11-24T12:54:11.873Z,6.32
2022-11-24T12:56:43.788Z,6.90
2022-11-24T12:59:25.449Z,6.68
2022-11-24T13:02:04.257Z,6.45
2022-11-24T13:05:00.995Z,7.38
2022-11-24T13:07:40.289Z,6.88
2022-11-24T13:16:13.197Z,7.80
2022-11-24T13:18:48.538Z,7.82
2022-11-24T13:21:47.164Z,7.03
2022-11-24T13:24:16.746Z,8.05
2022-11-24T13:26:43.549Z,9.05
2022-11-24T13:29:28.201Z,8.25
2022-11-24T13:31:55.996Z,8.82
2022-11-24T13:34:40.824Z,8.40
2022-11-24T13:37:32.103Z,8.45
2022-11-24T13:40:11.390Z,8.40
2022-11-24T13:43:10.151Z,8.35
2022-11-24T13:45:40.200Z,8.75
2022-11-24T13:48:19.372Z,8.85
2022-11-24T13:50:56.124Z,9.02
2022-11-24T13:53:34.622Z,9.05
2022-11-24T13:56:08.735Z,10.32
2022-11-24T13:58:54.900Z,9.73
2022-11-24T14:01:25.974Z,9.45
2022-11-24T14:06:51.786Z,9.90
2022-11-24T14:09:20.450Z,9.82
2022-11-24T14:11:55.888Z,9.52
2022-11-24T14:14:25.651Z,9.48
2022-11-24T14:17:07.070Z,9.55
2022-11-24T14:19:33.530Z,9.48
2022-11-24T14:22:00.030Z,9.38
2022-11-24T14:24:33.451Z,9.60
2022-11-24T14:27:05.196Z,9.45
2022-11-24T14:29:33.254Z,10.10
2022-11-24T14:32:03.556Z,9.60
2022-11-24T14:34:33.201Z,9.23
2022-11-24T14:37:00.753Z,8.75
2022-11-24T14:39:27.987Z,9.45
2022-11-24T14:42:20.481Z,9.15
2022-11-24T14:44:59.322Z,9.90
2022-11-24T14:47:31.400Z,9.40
2022-11-24T14:50:09.220Z,9.43
2022-11-24T14:52:36.050Z,9.13
2022-11-24T14:55:21.535Z,9.98
2022-11-24T14:57:50.007Z,9.70
2022-11-24T15:00:29.744Z,10.05
2022-11-24T15:03:14.318Z,9.35
2022-11-24T15:05:58.637Z,9.27
2022-11-24T15:08:26.895Z,10.60
2022-11-24T15:11:04.147Z,10.70
2022-11-24T15:13:34.897Z,10.63
2022-11-24T15:16:03.975Z,9.65
2022-11-24T15:18:41.363Z,9.73
2022-11-24T15:21:11.813Z,9.70
2022-11-24T15:23:43.403Z,9.60
2022-11-24T15:26:30.576Z,9.60
2022-11-24T15:28:58.644Z,10.32
2022-11-24T15:31:25.209Z,10.05
2022-11-24T15:33:51.752Z,10.80
2022-11-24T15:36:20.053Z,9.88
2022-11-24T15:38:46.615Z,10.43
2022-11-24T15:41:20.795Z,10.15
2022-11-24T15:43:47.797Z,11.35
2022-11-24T15:46:14.521Z,11.00
2022-11-24T15:48:41.084Z,11.35
2022-11-24T15:51:11.992Z,12.13
2022-11-24T15:53:57.088Z,10.38
2022-11-24T15:56:32.411Z,9.88
2022-11-24T15:58:59.614Z,10.38
2022-11-24T16:01:29.636Z,10.32
2022-11-24T16:03:56.167Z,13.00
2022-11-24T16:06:25.150Z,12.57
2022-11-24T16:08:53.062Z,12.10
2022-11-24T16:11:20.437Z,11.18
2022-11-24T16:13:51.999Z,11.93
2022-11-24T16:16:20.019Z,11.38
2022-11-24T16:18:46.604Z,12.35
2022-11-24T16:21:12.999Z,11.65
2022-11-24T16:23:39.535Z,12.48
2022-11-24T16:26:06.708Z,11.90
2022-11-24T16:28:34.483Z,11.75
2022-11-24T16:31:01.062Z,12.48
2022-11-24T16:33:29.654Z,13.02
2022-11-24T16:35:56.068Z,13.05
2022-11-24T16:38:22.489Z,13.35
2022-11-24T16:40:53.180Z,15.13
2022-11-24T16:43:19.895Z,14.90
2022-11-24T16:45:46.402Z,13.48
2022-11-24T16:48:12.910Z,14.82
2022-11-24T16:50:39.339Z,14.23
2022-11-24T16:53:05.848Z,13.93
2022-11-24T16:55:32.325Z,13.25
2022-11-24T16:57:58.846Z,13.82
2022-11-24T17:00:25.364Z,13.82
2022-11-24T17:02:51.880Z,14.30
2022-11-24T17:05:23.189Z,12.88
2022-11-24T17:07:49.634Z,13.43
2022-11-24T17:10:16.119Z,13.55
2022-11-24T17:12:43.396Z,12.55
2022-11-24T17:15:31.780Z,12.32
2022-11-24T17:18:23.107Z,12.18
2022-11-24T17:20:43.150Z,11.82
2022-11-24T17:23:09.746Z,12.68
2022-11-24T17:25:36.240Z,12.70
2022-11-24T17:28:02.670Z,11.48
2022-11-24T17:30:29.148Z,11.73
2022-11-24T17:32:57.065Z,11.07
2022-11-24T17:35:23.636Z,11.38
2022-11-24T17:37:50.093Z,11.18
2022-11-24T17:40:34.282Z,10.75
2022-11-24T17:43:01.020Z,10.30
2022-11-24T17:45:28.677Z,10.52
2022-11-24T17:47:56.113Z,11.27
2022-11-24T17:50:25.947Z,10.65
2022-11-24T17:52:53.340Z,10.88
2022-11-24T17:55:19.841Z,9.32
2022-11-24T17:57:46.294Z,9.63
2022-11-24T18:00:13.458Z,10.15
2022-11-24T18:02:39.949Z,10.30
2022-11-24T18:05:06.853Z,9.50
2022-11-24T18:07:36.452Z,8.88
2022-11-24T18:10:03.649Z,8.43
2022-11-24T18:12:30.128Z,8.00
2022-11-24T18:14:56.732Z,7.97
2022-11-24T18:17:23.233Z,7.45
2022-11-24T18:19:49.643Z,7.50
2022-11-24T18:22:16.116Z,7.05
2022-11-24T18:24:42.542Z,8.32
2022-11-24T18:27:09.068Z,7.13
2022-11-24T18:29:35.457Z,7.57
2022-11-24T18:32:02.285Z,6.95
2022-11-24T18:34:28.834Z,7.65
2022-11-24T18:36:55.451Z,7.43
2022-11-24T18:39:21.974Z,7.53
2022-11-24T18:41:48.415Z,7.57
2022-11-24T18:44:14.889Z,6.88
2022-11-24T18:46:41.435Z,7.07
2022-11-24T18:49:07.956Z,7.70
2022-11-24T18:51:34.694Z,6.90
2022-11-24T18:54:02.960Z,6.53
2022-11-24T18:56:29.481Z,6.90
2022-11-24T18:58:56.583Z,6.93
2022-11-24T19:01:26.512Z,7.13
2022-11-24T19:03:57.948Z,7.20
2022-11-24T19:06:32.331Z,7.03
2022-11-24T19:09:04.603Z,7.32
2022-11-24T19:11:33.769Z,7.20
2022-11-24T19:14:00.918Z,6.97
2022-11-24T19:16:27.446Z,6.93
2022-11-24T19:18:57.200Z,7.15
2022-11-24T19:21:23.674Z,6.90
2022-11-24T19:23:50.187Z,7.57
2022-11-24T19:26:16.603Z,6.70
2022-11-24T19:28:43.257Z,6.90
2022-11-24T19:31:12.254Z,6.97
2022-11-24T19:33:39.401Z,7.18
2022-11-24T19:36:13.849Z,7.45
2022-11-24T19:38:41.057Z,6.47
2022-11-24T19:41:12.326Z,6.65
2022-11-24T19:43:39.576Z,6.00
2022-11-24T19:46:08.063Z,6.47
2022-11-24T19:48:38.387Z,6.03
2022-11-24T19:51:07.559Z,6.60
2022-11-24T19:53:34.607Z,5.85
2022-11-24T19:56:05.247Z,6.18
2022-11-24T19:58:32.211Z,5.60
2022-11-24T20:01:16.065Z,5.65
2022-11-24T20:03:44.113Z,5.60
2022-11-24T20:06:12.670Z,6.07
2022-11-24T20:08:40.113Z,5.95
2022-11-24T20:11:15.391Z,6.28
2022-11-24T20:13:43.499Z,5.78
2022-11-24T20:16:15.188Z,5.13
2022-11-24T20:18:43.875Z,4.90
2022-11-24T20:21:15.561Z,5.43
2022-11-24T20:23:42.432Z,4.03
2022-11-24T20:26:12.122Z,5.30
2022-11-24T20:28:39.061Z,5.57
2022-11-24T20:31:08.389Z,5.38
2022-11-24T20:33:35.931Z,4.88
2022-11-24T20:36:18.955Z,5.20
2022-11-24T20:38:46.371Z,4.65
2022-11-24T20:41:17.927Z,4.25
2022-11-24T20:43:44.879Z,4.40
2022-11-24T20:46:20.498Z,4.55
2022-11-24T20:48:47.215Z,4.90
2022-11-24T20:51:24.724Z,5.07
2022-11-24T20:53:53.296Z,4.93
2022-11-24T20:56:24.073Z,4.97
2022-11-24T20:58:50.566Z,5.03
2022-11-24T21:01:19.523Z,4.72
2022-11-24T21:03:47.952Z,4.47
2022-11-24T21:06:14.953Z,4.85
2022-11-24T21:08:42.484Z,4.75
2022-11-24T21:11:11.295Z,4.30
2022-11-24T21:13:39.001Z,4.50
2022-11-24T21:16:16.196Z,4.50
2022-11-24T21:18:44.448Z,4.30
2022-11-24T21:21:11.503Z,4.20
2022-11-24T21:23:37.969Z,4.68
2022-11-24T21:26:07.469Z,4.20
2022-11-24T21:28:37.116Z,4.13
2022-11-24T21:31:15.271Z,4.45
2022-11-24T21:33:43.219Z,4.20
2022-11-24T21:36:09.803Z,4.35
2022-11-24T21:38:36.463Z,4.85
2022-11-24T21:41:04.530Z,4.05
2022-11-24T21:43:31.772Z,4.13
2022-11-24T21:46:08.613Z,4.97
2022-11-24T21:48:35.869Z,4.47
2022-11-24T21:51:04.112Z,4.60
2022-11-24T21:53:32.754Z,4.38
2022-11-24T21:56:09.714Z,4.32
2022-11-24T21:58:36.652Z,4.30
2022-11-24T22:01:04.889Z,5.72
2022-11-24T22:03:31.628Z,5.25
2022-11-24T22:06:00.234Z,4.50
2022-11-24T22:08:28.004Z,4.80
2022-11-24T22:11:00.591Z,4.70
2022-11-24T22:16:00.967Z,4.28
2022-11-24T22:18:31.054Z,4.57
2022-11-24T22:20:57.652Z,4.05
2022-11-24T22:23:24.307Z,4.45
2022-11-24T22:25:50.678Z,4.20
2022-11-24T22:28:17.089Z,4.80
2022-11-24T22:30:43.927Z,4.35
2022-11-24T22:33:10.340Z,4.32
2022-11-24T22:35:36.762Z,4.80
2022-11-24T22:38:03.222Z,4.55
2022-11-24T22:40:29.686Z,4.18
2022-11-24T22:42:57.760Z,4.43
2022-11-24T22:45:24.208Z,4.15
2022-11-24T22:47:54.581Z,4.22
2022-11-24T22:50:21.085Z,4.32
2022-11-24T22:52:49.794Z,4.03
2022-11-24T22:55:16.455Z,4.22
2022-11-24T22:57:47.428Z,4.40
2022-11-24T23:00:15.269Z,4.00
2022-11-24T23:02:41.699Z,4.28
2022-11-24T23:05:08.423Z,3.70
2022-11-24T23:07:34.951Z,4.10
2022-11-24T23:10:02.367Z,3.55
2022-11-24T23:12:28.793Z,4.20
2022-11-24T23:14:55.223Z,4.15
2022-11-24T23:17:21.740Z,3.22
2022-11-24T23:19:48.251Z,3.40
2022-11-24T23:22:14.686Z,3.67
2022-11-24T23:24:41.071Z,3.60
2022-11-24T23:27:07.487Z,3.40
2022-11-24T23:29:33.896Z,3.58
2022-11-24T23:32:00.420Z,3.28
2022-11-24T23:34:26.879Z,3.33
2022-11-24T23:36:53.310Z,3.25
2022-11-24T23:39:19.736Z,3.28
2022-11-24T23:41:46.164Z,3.45
2022-11-24T23:44:12.592Z,3.50
2022-11-24T23:46:39.083Z,3.50
2022-11-24T23:49:05.462Z,3.58
2022-11-24T23:51:33.156Z,3.53
2022-11-24T23:54:00.196Z,3.13
2022-11-24T23:56:32.538Z,3.38
2022-11-24T23:59:00.068Z,3.75
